Time;durP1;ratioP1;P1;durP2;ratioP2;P2;SDS_P1;SDS_P2;PMS_P1;PMS_P2;Temp;Humidity;BMP_temperature;BMP_pressure;BME280_temperature;BME280_humidity;BME280_pressure;Samples;Min_cycle;Max_cycle;Signal;HPM_P1;HPM_P2
2021/04/27 00:27:54;;;;;;;15.68;6.30;;;;;;;;;;4233092;28;20471;-66
2021/04/27 00:30:21;;;;;;;12.05;5.55;;;;;;;;;;4138881;34;20135;-66
2021/04/27 00:32:47;;;;;;;12.07;5.57;;;;;;;;;;4150915;34;20115;-66
2021/04/27 00:35:14;;;;;;;19.08;6.72;;;;;;;;;;4146228;34;20309;-66
2021/04/27 00:37:39;;;;;;;13.98;6.37;;;;;;;;;;4137195;34;20515;-66
2021/04/27 00:40:07;;;;;;;18.25;6.30;;;;;;;;;;4137618;34;20111;-66
2021/04/27 00:42:35;;;;;;;17.73;6.65;;;;;;;;;;4137159;34;20119;-66
2021/04/27 00:45:01;;;;;;;9.30;5.30;;;;;;;;;;4148972;34;20116;-66
2021/04/27 00:47:27;;;;;;;17.27;5.28;;;;;;;;;;4150566;34;20142;-66
2021/04/27 00:49:54;;;;;;;9.50;5.40;;;;;;;;;;4150638;34;20540;-66
2021/04/27 00:52:20;;;;;;;14.05;5.50;;;;;;;;;;4150659;34;20127;-66
2021/04/27 00:54:46;;;;;;;10.00;4.82;;;;;;;;;;4149253;34;20138;-66
2021/04/27 00:57:12;;;;;;;19.42;6.30;;;;;;;;;;4150661;34;20107;-66
2021/04/27 00:59:38;;;;;;;12.85;5.50;;;;;;;;;;4150487;34;20134;-66
2021/04/27 01:02:04;;;;;;;14.32;5.93;;;;;;;;;;4139293;34;20114;-66
2021/04/27 01:04:31;;;;;;;23.73;13.70;;;;;;;;;;4137023;34;20270;-66
2021/04/27 01:06:56;;;;;;;14.02;6.10;;;;;;;;;;4137234;34;20125;-66
2021/04/27 01:09:27;;;;;;;14.07;5.85;;;;;;;;;;4137179;34;20130;-66
2021/04/27 01:12:07;;;;;;;10.77;5.18;;;;;;;;;;4135501;34;20111;-65
2021/04/27 01:14:34;;;;;;;11.52;6.18;;;;;;;;;;4137285;34;20426;-65
2021/04/27 01:17:05;;;;;;;19.25;6.30;;;;;;;;;;4137273;34;20114;-66
2021/04/27 01:19:55;;;;;;;13.93;4.72;;;;;;;;;;4124680;34;20134;-66
2021/04/27 01:22:28;;;;;;;10.25;4.85;;;;;;;;;;4137268;34;20204;-66
2021/04/27 01:24:55;;;;;;;20.88;6.20;;;;;;;;;;4124527;34;20130;-66
2021/04/27 01:27:21;;;;;;;10.32;4.90;;;;;;;;;;4141180;34;20103;-66
2021/04/27 01:29:47;;;;;;;17.67;11.32;;;;;;;;;;4148963;34;20134;-66
2021/04/27 01:32:13;;;;;;;15.70;4.75;;;;;;;;;;4138092;34;20200;-66
2021/04/27 01:34:39;;;;;;;9.00;4.20;;;;;;;;;;4149102;34;20139;-66
2021/04/27 01:37:06;;;;;;;17.27;4.90;;;;;;;;;;4137559;34;20115;-67
2021/04/27 01:39:32;;;;;;;9.65;4.35;;;;;;;;;;4160326;34;20126;-66
2021/04/27 01:42:00;;;;;;;14.60;4.93;;;;;;;;;;4148848;34;20130;-67
2021/04/27 01:44:27;;;;;;;11.50;4.60;;;;;;;;;;4150163;34;20127;-67
2021/04/27 01:46:53;;;;;;;11.63;4.60;;;;;;;;;;4148976;34;20145;-66
2021/04/27 01:49:19;;;;;;;9.57;4.72;;;;;;;;;;4148971;34;20611;-66
2021/04/27 01:51:45;;;;;;;12.00;4.22;;;;;;;;;;4149931;34;20171;-67
2021/04/27 01:54:11;;;;;;;12.85;5.35;;;;;;;;;;4148753;34;20129;-67
2021/04/27 01:56:37;;;;;;;9.05;3.83;;;;;;;;;;4137545;34;20181;-67
2021/04/27 01:59:04;;;;;;;10.27;3.72;;;;;;;;;;4150235;34;20142;-67
2021/04/27 02:01:30;;;;;;;9.32;3.97;;;;;;;;;;4145369;34;20131;-66
2021/04/27 02:03:56;;;;;;;11.65;4.40;;;;;;;;;;4137574;34;20586;-66
2021/04/27 02:06:21;;;;;;;10.82;4.18;;;;;;;;;;4136712;34;20554;-66
2021/04/27 02:08:51;;;;;;;7.15;4.10;;;;;;;;;;4136478;34;20516;-66
2021/04/27 02:11:17;;;;;;;9.00;4.07;;;;;;;;;;4113397;34;20123;-66
2021/04/27 02:13:43;;;;;;;13.25;5.43;;;;;;;;;;4136794;34;20147;-66
2021/04/27 02:16:09;;;;;;;10.00;4.55;;;;;;;;;;4124151;34;20126;-66
2021/04/27 02:18:42;;;;;;;7.62;4.57;;;;;;;;;;4113643;34;20491;-67
2021/04/27 02:21:08;;;;;;;15.80;4.80;;;;;;;;;;4139822;34;20099;-66
2021/04/27 02:23:34;;;;;;;23.65;8.20;;;;;;;;;;4131663;34;20119;-67
2021/04/27 02:26:00;;;;;;;18.45;6.75;;;;;;;;;;4122908;34;20106;-66
2021/04/27 02:28:26;;;;;;;17.67;5.35;;;;;;;;;;4134163;34;20080;-70
2021/04/27 02:30:52;;;;;;;17.65;5.25;;;;;;;;;;4160140;34;20499;-69
2021/04/27 02:33:19;;;;;;;11.82;5.12;;;;;;;;;;4152293;34;20111;-69
2021/04/27 02:35:47;;;;;;;13.60;5.18;;;;;;;;;;4139005;34;20111;-70
2021/04/27 02:38:13;;;;;;;22.15;7.82;;;;;;;;;;4151529;34;20111;-70
2021/04/27 02:40:39;;;;;;;17.58;6.30;;;;;;;;;;4137802;34;20133;-69
2021/04/27 02:43:05;;;;;;;18.10;5.93;;;;;;;;;;4150537;34;20134;-69
2021/04/27 02:45:31;;;;;;;17.42;6.15;;;;;;;;;;4149835;34;20194;-71
2021/04/27 02:48:14;;;;;;;14.68;5.32;;;;;;;;;;4138822;34;20300;-68
2021/04/27 02:50:43;;;;;;;15.50;5.05;;;;;;;;;;4151770;34;20103;-68
2021/04/27 02:53:13;;;;;;;13.95;4.80;;;;;;;;;;4138978;34;20698;-68
2021/04/27 02:55:39;;;;;;;13.77;5.03;;;;;;;;;;4151678;34;20223;-68
2021/04/27 02:58:05;;;;;;;12.35;4.62;;;;;;;;;;4138894;34;20154;-68
2021/04/27 03:00:31;;;;;;;14.65;4.10;;;;;;;;;;4151477;34;20133;-67
2021/04/27 03:02:57;;;;;;;13.27;4.60;;;;;;;;;;4139166;34;20118;-68
2021/04/27 03:05:23;;;;;;;9.30;3.80;;;;;;;;;;4151726;34;20146;-70
2021/04/27 03:07:49;;;;;;;9.23;3.90;;;;;;;;;;4151504;34;20266;-67
2021/04/27 03:10:15;;;;;;;13.23;4.45;;;;;;;;;;4151466;34;20154;-66
2021/04/27 03:12:41;;;;;;;11.98;4.10;;;;;;;;;;4151378;34;20444;-69
2021/04/27 03:15:08;;;;;;;9.90;3.62;;;;;;;;;;4151474;34;20626;-68
2021/04/27 03:17:33;;;;;;;15.00;4.47;;;;;;;;;;4151335;34;20106;-70
2021/04/27 03:19:59;;;;;;;25.60;5.32;;;;;;;;;;4139158;34;20091;-69
2021/04/27 03:22:25;;;;;;;13.90;4.65;;;;;;;;;;4150332;34;20138;-70
2021/04/27 03:24:51;;;;;;;12.32;5.05;;;;;;;;;;4159739;34;20132;-69
2021/04/27 03:27:17;;;;;;;13.45;4.93;;;;;;;;;;4151363;34;20122;-69
2021/04/27 03:29:44;;;;;;;20.58;5.25;;;;;;;;;;4136689;34;20130;-69
2021/04/27 03:32:10;;;;;;;21.27;5.20;;;;;;;;;;4136211;34;20119;-69
2021/04/27 03:34:36;;;;;;;14.98;5.07;;;;;;;;;;4149987;34;20202;-69
2021/04/27 03:37:02;;;;;;;16.52;4.55;;;;;;;;;;4149867;34;20191;-69
2021/04/27 03:39:28;;;;;;;19.23;4.50;;;;;;;;;;4151395;34;20139;-69
2021/04/27 03:41:54;;;;;;;16.67;4.40;;;;;;;;;;4138475;34;20534;-69
2021/04/27 03:44:20;;;;;;;14.63;4.43;;;;;;;;;;4151261;34;20146;-69
2021/04/27 03:46:46;;;;;;;16.45;5.68;;;;;;;;;;4150667;34;20123;-69
2021/04/27 03:49:12;;;;;;;27.27;5.18;;;;;;;;;;4150996;34;20139;-69
2021/04/27 03:51:38;;;;;;;18.80;5.07;;;;;;;;;;4150932;34;20295;-69
2021/04/27 03:54:04;;;;;;;16.80;4.75;;;;;;;;;;4151115;34;20190;-69
2021/04/27 03:56:30;;;;;;;11.70;4.37;;;;;;;;;;4150834;34;20196;-69
2021/04/27 03:58:56;;;;;;;15.48;5.15;;;;;;;;;;4148669;34;20119;-69
2021/04/27 04:01:22;;;;;;;15.35;4.65;;;;;;;;;;4151001;34;20226;-68
2021/04/27 04:03:48;;;;;;;28.75;5.90;;;;;;;;;;4150224;34;20130;-69
2021/04/27 04:06:13;;;;;;;23.23;7.68;;;;;;;;;;4150761;34;20206;-69
2021/04/27 04:08:40;;;;;;;24.10;9.15;;;;;;;;;;4151620;34;20131;-69
2021/04/27 04:11:05;;;;;;;22.48;7.30;;;;;;;;;;4138284;34;20601;-69
2021/04/27 04:13:32;;;;;;;27.15;6.32;;;;;;;;;;4150910;34;20130;-69
2021/04/27 04:15:58;;;;;;;13.98;5.78;;;;;;;;;;4138505;34;20120;-69
2021/04/27 04:18:24;;;;;;;19.77;6.68;;;;;;;;;;4138259;34;20133;-69
2021/04/27 04:20:50;;;;;;;14.18;5.10;;;;;;;;;;4150711;34;20141;-69
2021/04/27 04:23:16;;;;;;;9.23;3.95;;;;;;;;;;4151068;34;20629;-69
2021/04/27 04:25:42;;;;;;;8.27;4.07;;;;;;;;;;4150681;34;20204;-69
2021/04/27 04:28:10;;;;;;;6.55;3.33;;;;;;;;;;4150659;34;20531;-69
2021/04/27 04:30:35;;;;;;;10.65;3.60;;;;;;;;;;4160713;34;20111;-68
2021/04/27 04:33:01;;;;;;;6.93;3.37;;;;;;;;;;4151285;34;20106;-69
2021/04/27 04:35:28;;;;;;;12.65;4.20;;;;;;;;;;4150038;34;20111;-69
2021/04/27 04:37:54;;;;;;;9.63;3.55;;;;;;;;;;4138272;34;20099;-69
2021/04/27 04:40:20;;;;;;;6.12;3.78;;;;;;;;;;4150995;34;20550;-69
2021/04/27 04:42:46;;;;;;;17.48;3.90;;;;;;;;;;4150701;34;20228;-69
2021/04/27 04:45:12;;;;;;;19.55;6.28;;;;;;;;;;4150765;34;20119;-69
2021/04/27 04:47:38;;;;;;;22.37;5.05;;;;;;;;;;4150966;34;20099;-69
2021/04/27 04:50:05;;;;;;;18.37;4.80;;;;;;;;;;4150665;34;20137;-69
2021/04/27 04:52:31;;;;;;;21.85;6.20;;;;;;;;;;4150639;34;20101;-69
2021/04/27 04:54:57;;;;;;;15.40;5.40;;;;;;;;;;4160526;34;20091;-69
2021/04/27 04:57:24;;;;;;;38.55;19.87;;;;;;;;;;4150430;34;20114;-69
2021/04/27 04:59:50;;;;;;;21.00;6.40;;;;;;;;;;4150909;34;20141;-69
2021/04/27 05:02:16;;;;;;;16.80;5.07;;;;;;;;;;4160805;34;20103;-69
2021/04/27 05:04:42;;;;;;;7.75;3.22;;;;;;;;;;4150503;34;20130;-69
2021/04/27 05:07:11;;;;;;;7.05;2.60;;;;;;;;;;4150526;34;20457;-69
2021/04/27 05:09:38;;;;;;;5.57;2.47;;;;;;;;;;4160572;34;20498;-69
2021/04/27 05:12:10;;;;;;;7.40;2.53;;;;;;;;;;4160508;34;20227;-69
2021/04/27 05:14:40;;;;;;;3.50;2.33;;;;;;;;;;4151113;34;20096;-69
2021/04/27 05:17:07;;;;;;;3.05;2.40;;;;;;;;;;4150818;34;20543;-69
2021/04/27 05:19:33;;;;;;;6.15;2.03;;;;;;;;;;4150600;34;20126;-69
2021/04/27 05:22:00;;;;;;;5.28;2.58;;;;;;;;;;4150535;34;20119;-69
2021/04/27 05:24:26;;;;;;;2.95;2.20;;;;;;;;;;4138333;34;20218;-69
2021/04/27 05:26:52;;;;;;;17.33;3.00;;;;;;;;;;4150152;34;20130;-69
2021/04/27 05:29:19;;;;;;;10.65;2.92;;;;;;;;;;4148968;34;20621;-69
2021/04/27 05:31:46;;;;;;;10.13;3.17;;;;;;;;;;4150646;34;20111;-69
2021/04/27 05:34:11;;;;;;;7.28;3.60;;;;;;;;;;4150363;34;20099;-69
2021/04/27 05:36:37;;;;;;;5.97;2.67;;;;;;;;;;4150126;34;20211;-68
2021/04/27 05:39:03;;;;;;;4.18;2.70;;;;;;;;;;4160559;34;20579;-68
2021/04/27 05:41:29;;;;;;;2.85;2.30;;;;;;;;;;4150358;34;20131;-69
2021/04/27 05:43:55;;;;;;;4.55;2.30;;;;;;;;;;4150290;34;20126;-69
2021/04/27 05:46:21;;;;;;;7.50;2.80;;;;;;;;;;4149603;34;20126;-69
2021/04/27 05:48:50;;;;;;;2.70;1.98;;;;;;;;;;4149709;34;20107;-69
2021/04/27 05:51:16;;;;;;;5.80;2.55;;;;;;;;;;4159894;34;20147;-69
2021/04/27 05:53:42;;;;;;;4.95;2.47;;;;;;;;;;4159964;34;20480;-69
2021/04/27 05:56:08;;;;;;;4.57;2.45;;;;;;;;;;4150927;34;20119;-69
2021/04/27 05:58:34;;;;;;;15.45;2.87;;;;;;;;;;4150293;34;20140;-69
2021/04/27 06:00:59;;;;;;;3.47;2.28;;;;;;;;;;4149666;34;20130;-69
2021/04/27 06:03:25;;;;;;;6.22;2.35;;;;;;;;;;4148182;34;20610;-69
2021/04/27 06:05:51;;;;;;;6.07;2.33;;;;;;;;;;4149424;34;20119;-69
2021/04/27 06:08:17;;;;;;;7.12;2.62;;;;;;;;;;4149662;34;20123;-69
2021/04/27 06:10:43;;;;;;;4.03;2.20;;;;;;;;;;4149206;34;20127;-69
2021/04/27 06:13:08;;;;;;;5.15;2.20;;;;;;;;;;4159442;34;20141;-69
2021/04/27 06:15:34;;;;;;;6.28;3.00;;;;;;;;;;4149641;34;20623;-69
2021/04/27 06:18:00;;;;;;;7.68;2.30;;;;;;;;;;4149409;34;20111;-68
2021/04/27 06:20:26;;;;;;;3.92;2.30;;;;;;;;;;4149536;34;20095;-68
2021/04/27 06:22:51;;;;;;;4.10;2.28;;;;;;;;;;4150574;34;20207;-68
2021/04/27 06:25:17;;;;;;;4.35;3.03;;;;;;;;;;4150946;34;20131;-68
2021/04/27 06:27:43;;;;;;;4.95;2.90;;;;;;;;;;4151439;34;20126;-68
2021/04/27 06:30:10;;;;;;;2.75;2.42;;;;;;;;;;4151705;34;20149;-68
2021/04/27 06:32:35;;;;;;;3.22;2.17;;;;;;;;;;4161578;34;20120;-68
2021/04/27 06:35:03;;;;;;;4.70;2.25;;;;;;;;;;4151709;34;20126;-68
2021/04/27 06:37:28;;;;;;;3.80;2.42;;;;;;;;;;4142833;34;20487;-68
2021/04/27 06:39:54;;;;;;;2.85;1.92;;;;;;;;;;4152718;34;20219;-68
2021/04/27 06:42:20;;;;;;;3.58;2.47;;;;;;;;;;4165133;34;20134;-68
2021/04/27 06:44:46;;;;;;;4.90;2.87;;;;;;;;;;4165490;34;20566;-68
2021/04/27 06:47:12;;;;;;;4.87;2.30;;;;;;;;;;4152675;34;20122;-68
2021/04/27 06:49:38;;;;;;;5.80;3.50;;;;;;;;;;4165232;34;20138;-68
2021/04/27 06:52:05;;;;;;;7.18;4.10;;;;;;;;;;4165225;34;20500;-68
2021/04/27 06:54:31;;;;;;;5.85;2.60;;;;;;;;;;4165514;34;20118;-68
2021/04/27 06:56:57;;;;;;;4.28;2.00;;;;;;;;;;4165294;34;20126;-68
2021/04/27 06:59:30;;;;;;;2.35;1.95;;;;;;;;;;4152449;34;20459;-68
2021/04/27 07:01:59;;;;;;;2.45;2.00;;;;;;;;;;4164969;34;20487;-68
2021/04/27 07:04:25;;;;;;;2.55;2.05;;;;;;;;;;4165116;34;20214;-68
2021/04/27 07:06:51;;;;;;;1.98;1.67;;;;;;;;;;4165761;34;20115;-68
2021/04/27 07:09:18;;;;;;;2.25;1.98;;;;;;;;;;4165512;34;20127;-68
2021/04/27 07:11:44;;;;;;;2.53;2.05;;;;;;;;;;4152632;34;20095;-68
2021/04/27 07:14:10;;;;;;;3.85;1.80;;;;;;;;;;4152498;34;20154;-68
2021/04/27 07:16:35;;;;;;;2.30;1.80;;;;;;;;;;4152389;34;20115;-68
2021/04/27 07:19:01;;;;;;;4.07;2.12;;;;;;;;;;4165477;34;20523;-69
2021/04/27 07:21:27;;;;;;;2.62;2.05;;;;;;;;;;4165086;34;20106;-69
2021/04/27 07:23:53;;;;;;;4.95;2.42;;;;;;;;;;4164945;34;20533;-69
2021/04/27 07:26:19;;;;;;;3.40;2.55;;;;;;;;;;4152564;34;20126;-69
2021/04/27 07:28:45;;;;;;;3.03;2.28;;;;;;;;;;4159746;34;20649;-69
2021/04/27 07:31:11;;;;;;;4.45;2.33;;;;;;;;;;4151446;34;20130;-69
2021/04/27 07:33:37;;;;;;;4.43;1.90;;;;;;;;;;4152126;34;20520;-70
2021/04/27 07:36:03;;;;;;;3.62;2.20;;;;;;;;;;4151863;34;20198;-69
2021/04/27 07:38:29;;;;;;;4.22;1.95;;;;;;;;;;4152753;34;20137;-70
2021/04/27 07:40:55;;;;;;;7.50;2.20;;;;;;;;;;4152708;34;20196;-70
2021/04/27 07:43:21;;;;;;;3.05;1.70;;;;;;;;;;4152482;34;20130;-69
2021/04/27 07:45:47;;;;;;;4.43;1.98;;;;;;;;;;4152583;34;20102;-70
2021/04/27 07:48:13;;;;;;;3.87;2.00;;;;;;;;;;4159241;34;20126;-69
2021/04/27 07:50:39;;;;;;;4.32;2.03;;;;;;;;;;4173692;34;20104;-70
2021/04/27 07:53:05;;;;;;;2.92;2.12;;;;;;;;;;4164042;34;20471;-71
2021/04/27 07:55:31;;;;;;;3.40;1.92;;;;;;;;;;4152054;34;20139;-71
2021/04/27 07:57:58;;;;;;;4.70;1.92;;;;;;;;;;4152003;34;20131;-71
2021/04/27 08:00:24;;;;;;;3.10;2.05;;;;;;;;;;4158729;34;20107;-70
2021/04/27 08:02:51;;;;;;;3.17;2.37;;;;;;;;;;4172246;34;20130;-69
2021/04/27 08:05:18;;;;;;;3.92;2.05;;;;;;;;;;4157961;34;20115;-67
2021/04/27 08:07:44;;;;;;;2.85;1.87;;;;;;;;;;4150888;34;20540;-67
2021/04/27 08:10:13;;;;;;;3.08;2.15;;;;;;;;;;4151096;34;20126;-68
2021/04/27 08:12:41;;;;;;;3.62;1.90;;;;;;;;;;4151230;34;20111;-68
2021/04/27 08:15:07;;;;;;;2.62;1.92;;;;;;;;;;4150924;34;20107;-68
2021/04/27 08:17:33;;;;;;;2.65;1.95;;;;;;;;;;4151094;34;20096;-68
2021/04/27 08:19:59;;;;;;;3.08;2.42;;;;;;;;;;4150944;34;20111;-68
2021/04/27 08:22:25;;;;;;;8.07;2.37;;;;;;;;;;4151151;34;20632;-68
2021/04/27 08:24:51;;;;;;;2.28;1.67;;;;;;;;;;4150786;34;20555;-68
2021/04/27 08:27:17;;;;;;;2.80;2.10;;;;;;;;;;4150675;34;20480;-67
2021/04/27 08:29:43;;;;;;;3.87;2.10;;;;;;;;;;4150139;34;20103;-70
2021/04/27 08:32:10;;;;;;;2.78;2.10;;;;;;;;;;4161299;34;20456;-68
2021/04/27 08:34:37;;;;;;;2.00;1.80;;;;;;;;;;4164437;34;20103;-68
2021/04/27 08:37:03;;;;;;;3.78;2.20;;;;;;;;;;4136149;34;20127;-68
2021/04/27 08:39:29;;;;;;;4.22;2.05;;;;;;;;;;4137186;34;20544;-68
2021/04/27 08:41:55;;;;;;;2.30;2.00;;;;;;;;;;4149133;34;20096;-67
2021/04/27 08:44:21;;;;;;;2.65;2.25;;;;;;;;;;4137707;34;20173;-67
2021/04/27 08:46:47;;;;;;;3.22;2.40;;;;;;;;;;4150893;34;20103;-66
2021/04/27 08:49:13;;;;;;;3.12;2.30;;;;;;;;;;4150726;34;20123;-67
2021/04/27 08:51:39;;;;;;;3.17;2.42;;;;;;;;;;4157932;34;20127;-67
2021/04/27 08:54:06;;;;;;;3.90;2.58;;;;;;;;;;4134912;34;20555;-67
2021/04/27 08:56:32;;;;;;;2.40;2.20;;;;;;;;;;4146709;34;20194;-67
2021/04/27 08:58:59;;;;;;;2.80;2.20;;;;;;;;;;4149245;34;20608;-67
2021/04/27 09:01:25;;;;;;;3.90;2.50;;;;;;;;;;4135413;34;20127;-68
2021/04/27 09:03:58;;;;;;;3.22;2.33;;;;;;;;;;4137137;34;20142;-66
2021/04/27 09:06:24;;;;;;;3.33;2.70;;;;;;;;;;4146079;34;20458;-68
2021/04/27 09:08:50;;;;;;;3.42;2.42;;;;;;;;;;4150453;34;20135;-67
2021/04/27 09:11:33;;;;;;;2.70;2.42;;;;;;;;;;4150135;34;20110;-66
2021/04/27 09:14:28;;;;;;;4.85;2.60;;;;;;;;;;4150446;34;20118;-68
2021/04/27 09:17:01;;;;;;;3.20;2.60;;;;;;;;;;4137245;34;20127;-67
2021/04/27 09:19:41;;;;;;;4.32;2.78;;;;;;;;;;4150390;34;20612;-68
2021/04/27 09:22:07;;;;;;;2.78;2.53;;;;;;;;;;4150359;34;20107;-68
2021/04/27 09:24:34;;;;;;;4.80;2.67;;;;;;;;;;4150371;34;20154;-68
2021/04/27 09:27:01;;;;;;;4.60;2.58;;;;;;;;;;4149986;34;20119;-67
2021/04/27 09:29:34;;;;;;;3.25;2.50;;;;;;;;;;4150039;34;20115;-68
2021/04/27 09:32:00;;;;;;;3.00;2.45;;;;;;;;;;4150141;34;20449;-67
2021/04/27 09:34:27;;;;;;;3.53;2.85;;;;;;;;;;4137821;34;20142;-68
2021/04/27 09:36:59;;;;;;;3.12;2.40;;;;;;;;;;4151413;34;20145;-68
2021/04/27 09:39:33;;;;;;;2.67;2.37;;;;;;;;;;4138406;34;20115;-68
2021/04/27 09:42:07;;;;;;;3.20;2.40;;;;;;;;;;4150041;34;20125;-68
2021/04/27 09:44:41;;;;;;;3.12;2.40;;;;;;;;;;4150704;34;20186;-68
2021/04/27 09:47:26;;;;;;;4.65;2.75;;;;;;;;;;4135771;34;20104;-68
2021/04/27 09:50:00;;;;;;;3.30;2.62;;;;;;;;;;4126220;34;20172;-68
2021/04/27 09:52:27;;;;;;;3.15;2.70;;;;;;;;;;4149910;34;20130;-68
2021/04/27 09:55:20;;;;;;;3.22;2.28;;;;;;;;;;4149938;34;20110;-68
2021/04/27 09:57:50;;;;;;;2.72;2.40;;;;;;;;;;4146535;34;20119;-68
2021/04/27 10:00:31;;;;;;;2.85;2.30;;;;;;;;;;4149854;34;20550;-68
2021/04/27 10:02:59;;;;;;;4.15;2.72;;;;;;;;;;4150110;34;20092;-68
2021/04/27 10:05:25;;;;;;;5.43;3.80;;;;;;;;;;4135321;34;20100;-69
2021/04/27 10:07:52;;;;;;;6.93;5.35;;;;;;;;;;4136625;34;20108;-69
2021/04/27 10:10:19;;;;;;;7.47;5.47;;;;;;;;;;4139222;34;20111;-70
2021/04/27 10:12:46;;;;;;;10.40;7.40;;;;;;;;;;4137414;34;20289;-69
2021/04/27 10:15:13;;;;;;;4.00;3.03;;;;;;;;;;4150124;34;20194;-69
2021/04/27 10:17:39;;;;;;;8.50;3.70;;;;;;;;;;4149989;34;20538;-68
2021/04/27 10:20:07;;;;;;;8.52;5.85;;;;;;;;;;4137349;34;20142;-68
2021/04/27 10:22:36;;;;;;;5.70;3.60;;;;;;;;;;4148382;34;20103;-70
2021/04/27 10:25:02;;;;;;;9.57;6.03;;;;;;;;;;4149717;34;20118;-69
2021/04/27 10:27:29;;;;;;;9.40;6.30;;;;;;;;;;4137287;34;20142;-70
2021/04/27 10:29:57;;;;;;;14.57;7.12;;;;;;;;;;4125581;34;20129;-70
2021/04/27 10:32:26;;;;;;;7.72;5.70;;;;;;;;;;4136064;34;20109;-69
2021/04/27 10:34:58;;;;;;;12.35;6.28;;;;;;;;;;4123765;34;20192;-69
2021/04/27 10:37:28;;;;;;;6.72;3.90;;;;;;;;;;4136145;34;20192;-70
2021/04/27 10:39:54;;;;;;;5.75;3.25;;;;;;;;;;4136271;34;20086;-69
2021/04/27 10:42:28;;;;;;;4.15;2.70;;;;;;;;;;4125365;34;20100;-69
2021/04/27 10:45:02;;;;;;;7.87;2.90;;;;;;;;;;4136077;34;20112;-69
2021/04/27 10:47:31;;;;;;;2.83;2.03;;;;;;;;;;4124026;34;20118;-70
2021/04/27 10:49:57;;;;;;;4.12;2.40;;;;;;;;;;4136118;34;20508;-68
2021/04/27 10:52:39;;;;;;;2.58;1.90;;;;;;;;;;4136028;34;20138;-68
2021/04/27 10:55:33;;;;;;;3.50;2.08;;;;;;;;;;4136808;34;20096;-70
2021/04/27 10:58:03;;;;;;;3.97;2.42;;;;;;;;;;4136017;34;20115;-70
2021/04/27 11:00:43;;;;;;;4.78;2.50;;;;;;;;;;4136194;34;20115;-69
2021/04/27 11:03:20;;;;;;;4.32;2.50;;;;;;;;;;4123707;34;20174;-69
2021/04/27 11:06:06;;;;;;;2.67;2.45;;;;;;;;;;4135922;34;20120;-73
2021/04/27 11:08:50;;;;;;;3.55;2.58;;;;;;;;;;4137140;34;20104;-70
2021/04/27 11:11:18;;;;;;;3.65;2.40;;;;;;;;;;4138239;34;20460;-69
2021/04/27 11:13:44;;;;;;;2.62;2.40;;;;;;;;;;4138072;34;20095;-68
2021/04/27 11:16:23;;;;;;;5.22;2.40;;;;;;;;;;4137894;34;20122;-70
2021/04/27 11:18:49;;;;;;;7.72;2.85;;;;;;;;;;4137937;34;20536;-69
2021/04/27 11:21:15;;;;;;;2.72;2.53;;;;;;;;;;4137839;34;20142;-70
2021/04/27 11:23:48;;;;;;;6.10;2.80;;;;;;;;;;4125726;34;20547;-70
2021/04/27 11:26:32;;;;;;;4.80;2.30;;;;;;;;;;4138693;34;20606;-69
2021/04/27 11:29:05;;;;;;;5.03;2.50;;;;;;;;;;4144825;34;20218;-69
2021/04/27 11:31:50;;;;;;;7.78;4.07;;;;;;;;;;4151670;34;20524;-69
2021/04/27 11:34:16;;;;;;;5.25;2.33;;;;;;;;;;4160308;34;20223;-69
2021/04/27 11:36:42;;;;;;;9.52;2.58;;;;;;;;;;4151493;34;20558;-69
2021/04/27 11:39:32;;;;;;;7.60;3.20;;;;;;;;;;4151891;34;20139;-71
2021/04/27 11:42:02;;;;;;;2.60;2.40;;;;;;;;;;4151342;34;20103;-69
2021/04/27 11:44:38;;;;;;;5.18;2.83;;;;;;;;;;4151365;34;20182;-68
2021/04/27 11:47:17;;;;;;;7.50;2.60;;;;;;;;;;4151018;34;20228;-69
2021/04/27 11:49:47;;;;;;;4.65;2.47;;;;;;;;;;4151247;34;20103;-69
2021/04/27 11:52:14;;;;;;;4.45;2.20;;;;;;;;;;4151299;34;20146;-68
2021/04/27 11:54:40;;;;;;;8.93;2.53;;;;;;;;;;4151127;34;20121;-68
2021/04/27 11:57:18;;;;;;;3.47;2.65;;;;;;;;;;4150998;34;20127;-69
2021/04/27 11:59:44;;;;;;;5.78;2.60;;;;;;;;;;4161247;34;20153;-69
2021/04/27 12:02:13;;;;;;;4.53;2.10;;;;;;;;;;4151385;34;20103;-68
2021/04/27 12:04:41;;;;;;;4.07;2.17;;;;;;;;;;4150960;34;20556;-68
2021/04/27 12:07:06;;;;;;;2.03;1.85;;;;;;;;;;4151344;34;20115;-69
2021/04/27 12:09:42;;;;;;;3.83;2.20;;;;;;;;;;4151628;34;20544;-68
2021/04/27 12:12:12;;;;;;;3.28;2.40;;;;;;;;;;4151386;34;20468;-70
2021/04/27 12:14:47;;;;;;;8.90;2.60;;;;;;;;;;4151519;34;20123;-69
2021/04/27 12:17:22;;;;;;;;;;;;;;;;;;4152030;34;20111;-67
2021/04/27 12:20:01;;;;;;;3.95;2.20;;;;;;;;;;4150395;34;19991;-68
2021/04/27 12:22:27;;;;;;;3.33;2.37;;;;;;;;;;4151049;34;20192;-69
2021/04/27 12:24:53;;;;;;;5.18;2.05;;;;;;;;;;4151718;34;20131;-69
2021/04/27 12:27:21;;;;;;;2.67;2.45;;;;;;;;;;4161287;34;20577;-70
2021/04/27 12:29:54;;;;;;;2.67;2.47;;;;;;;;;;4161340;34;20117;-70
2021/04/27 12:32:26;;;;;;;4.60;2.05;;;;;;;;;;4160606;34;20520;-70
2021/04/27 12:35:18;;;;;;;5.90;2.40;;;;;;;;;;4151705;34;20500;-68
2021/04/27 12:37:44;;;;;;;7.82;2.45;;;;;;;;;;4151106;34;20131;-67
2021/04/27 12:40:13;;;;;;;8.70;2.72;;;;;;;;;;4151918;34;20131;-70
2021/04/27 12:42:48;;;;;;;2.72;2.53;;;;;;;;;;4152066;34;20098;-70
2021/04/27 12:45:14;;;;;;;7.40;2.75;;;;;;;;;;4160307;34;20118;-70
2021/04/27 12:47:41;;;;;;;4.03;2.20;;;;;;;;;;4148336;34;20118;-70
2021/04/27 12:50:08;;;;;;;2.92;2.60;;;;;;;;;;4165092;34;20110;-69
2021/04/27 12:52:55;;;;;;;3.72;2.70;;;;;;;;;;4159866;34;20135;-68
2021/04/27 12:55:22;;;;;;;3.12;2.55;;;;;;;;;;4159203;34;20103;-70
2021/04/27 12:57:48;;;;;;;6.47;2.58;;;;;;;;;;4147020;34;20204;-70
2021/04/27 13:00:18;;;;;;;6.07;2.42;;;;;;;;;;4145522;34;20146;-70
2021/04/27 13:02:45;;;;;;;4.28;2.53;;;;;;;;;;4152663;34;20118;-69
2021/04/27 13:05:11;;;;;;;9.25;2.50;;;;;;;;;;4151525;34;20115;-69
2021/04/27 13:07:38;;;;;;;4.40;2.40;;;;;;;;;;4150291;34;20488;-67
2021/04/27 13:10:10;;;;;;;5.90;2.60;;;;;;;;;;4149323;34;20597;-67
2021/04/27 13:12:36;;;;;;;4.40;2.60;;;;;;;;;;4151040;34;20147;-70
2021/04/27 13:15:05;;;;;;;2.83;1.87;;;;;;;;;;4164191;34;20142;-69
2021/04/27 13:17:41;;;;;;;8.07;2.20;;;;;;;;;;4136563;34;20186;-68
2021/04/27 13:20:18;;;;;;;3.90;1.87;;;;;;;;;;4136791;34;20524;-69
2021/04/27 13:22:58;;;;;;;7.50;2.33;;;;;;;;;;4150387;34;20115;-68
2021/04/27 13:25:31;;;;;;;3.22;2.22;;;;;;;;;;4150383;34;20601;-70
2021/04/27 13:28:00;;;;;;;3.35;2.22;;;;;;;;;;4137520;34;20500;-69
2021/04/27 13:30:27;;;;;;;5.95;2.10;;;;;;;;;;4159623;34;20199;-68
2021/04/27 13:32:54;;;;;;;5.22;2.20;;;;;;;;;;4150263;34;20118;-69
2021/04/27 13:35:28;;;;;;;3.12;2.10;;;;;;;;;;4149838;34;20207;-69
2021/04/27 13:37:55;;;;;;;2.10;1.90;;;;;;;;;;4137459;34;20456;-69
2021/04/27 13:40:21;;;;;;;4.47;2.25;;;;;;;;;;4149599;34;20216;-69
2021/04/27 13:42:53;;;;;;;3.58;2.20;;;;;;;;;;4150119;34;20121;-69
2021/04/27 13:45:20;;;;;;;2.70;2.20;;;;;;;;;;4150023;34;20122;-70
2021/04/27 13:47:46;;;;;;;5.00;2.20;;;;;;;;;;4149914;34;20119;-70
2021/04/27 13:50:12;;;;;;;5.15;2.65;;;;;;;;;;4150117;34;20130;-71
2021/04/27 13:52:38;;;;;;;3.72;2.72;;;;;;;;;;4137431;34;20212;-66
2021/04/27 13:55:05;;;;;;;7.20;3.60;;;;;;;;;;4137484;34;20224;-72
2021/04/27 13:57:31;;;;;;;2.97;2.60;;;;;;;;;;4148490;34;20118;-72
2021/04/27 13:59:58;;;;;;;3.08;2.42;;;;;;;;;;4150122;34;20106;-71
2021/04/27 14:02:24;;;;;;;3.17;2.83;;;;;;;;;;4150013;34;20119;-69
2021/04/27 14:04:50;;;;;;;3.62;2.60;;;;;;;;;;4149839;34;20557;-68
2021/04/27 14:07:16;;;;;;;5.12;3.12;;;;;;;;;;4148890;34;20176;-70
2021/04/27 14:09:41;;;;;;;6.15;3.30;;;;;;;;;;4150148;34;20205;-68
2021/04/27 14:12:07;;;;;;;3.45;2.75;;;;;;;;;;4149896;34;20122;-69
2021/04/27 14:14:33;;;;;;;5.80;2.90;;;;;;;;;;4150116;34;20123;-68
2021/04/27 14:17:00;;;;;;;5.12;3.00;;;;;;;;;;4149886;34;20123;-69
2021/04/27 14:19:25;;;;;;;4.43;2.85;;;;;;;;;;4137490;34;20107;-68
2021/04/27 14:21:51;;;;;;;3.83;3.22;;;;;;;;;;4149908;34;20123;-68
2021/04/27 14:24:17;;;;;;;7.93;3.47;;;;;;;;;;4150086;34;20139;-68
2021/04/27 14:26:43;;;;;;;4.62;3.17;;;;;;;;;;4149595;34;20179;-69
2021/04/27 14:29:09;;;;;;;8.23;2.78;;;;;;;;;;4149915;34;20111;-70
2021/04/27 14:31:35;;;;;;;3.37;2.70;;;;;;;;;;4160045;34;20131;-70
2021/04/27 14:34:01;;;;;;;3.70;2.53;;;;;;;;;;4159987;34;20563;-69
2021/04/27 14:36:27;;;;;;;6.45;2.60;;;;;;;;;;4149777;34;20134;-69
2021/04/27 14:38:53;;;;;;;9.43;2.85;;;;;;;;;;4148258;34;20109;-69
2021/04/27 14:41:19;;;;;;;8.27;5.50;;;;;;;;;;4149737;34;20145;-69
2021/04/27 14:43:45;;;;;;;6.28;4.10;;;;;;;;;;4151086;34;20215;-68
2021/04/27 14:46:11;;;;;;;4.25;2.92;;;;;;;;;;4151740;34;20198;-69
2021/04/27 14:48:37;;;;;;;3.78;3.10;;;;;;;;;;4151985;34;20190;-69
2021/04/27 14:51:06;;;;;;;3.87;2.80;;;;;;;;;;4151537;34;20096;-69
2021/04/27 14:53:32;;;;;;;4.22;2.05;;;;;;;;;;4151638;34;20120;-70
2021/04/27 14:55:58;;;;;;;7.25;2.55;;;;;;;;;;4155874;34;20491;-70
2021/04/27 14:58:27;;;;;;;4.97;2.80;;;;;;;;;;4152659;34;20211;-66
2021/04/27 15:00:54;;;;;;;20.80;9.88;;;;;;;;;;4155997;34;20114;-65
2021/04/27 15:03:24;;;;;;;8.13;4.40;;;;;;;;;;4139293;34;20133;-65
2021/04/27 15:05:51;;;;;;;7.57;2.40;;;;;;;;;;4151457;34;20546;-65
2021/04/27 15:08:17;;;;;;;5.10;2.50;;;;;;;;;;4139242;34;20111;-65
2021/04/27 15:10:43;;;;;;;3.33;2.25;;;;;;;;;;4150302;34;20112;-65